createdAt,value
2019-03-15T00:01:17.776Z,23.10
2019-03-15T00:03:58.941Z,18.87
2019-03-15T00:06:40.249Z,22.00
2019-03-15T00:12:04.329Z,16.57
2019-03-15T00:14:45.666Z,19.07
2019-03-15T00:20:07.174Z,22.93
2019-03-15T00:22:48.695Z,15.40
2019-03-15T00:25:30.187Z,23.07
2019-03-15T00:28:11.756Z,19.87
2019-03-15T00:30:53.321Z,21.37
2019-03-15T00:33:34.858Z,17.43
2019-03-15T00:36:15.689Z,21.57
2019-03-15T00:38:56.888Z,19.97
2019-03-15T00:41:26.319Z,20.43
2019-03-15T00:44:15.027Z,16.80
2019-03-15T00:47:03.706Z,20.10
2019-03-15T00:49:44.882Z,18.47
2019-03-15T00:52:26.084Z,21.90
2019-03-15T00:55:07.775Z,18.57
2019-03-15T01:00:28.520Z,22.67
2019-03-15T01:03:10.120Z,21.43
2019-03-15T01:08:42.959Z,19.07
2019-03-15T01:11:23.854Z,20.80
2019-03-15T01:14:05.340Z,21.60
2019-03-15T01:16:46.563Z,22.57
2019-03-15T01:19:16.424Z,17.93
2019-03-15T01:22:05.091Z,20.07
2019-03-15T01:24:47.181Z,17.87
2019-03-15T01:27:28.984Z,23.27
2019-03-15T01:30:10.062Z,19.13
2019-03-15T01:35:33.599Z,19.60
2019-03-15T01:38:14.008Z,17.27
2019-03-15T01:40:55.311Z,20.90
2019-03-15T01:43:36.962Z,21.90
2019-03-15T01:46:15.185Z,21.27
2019-03-15T01:48:54.609Z,21.17
2019-03-15T01:51:36.021Z,15.73
2019-03-15T01:57:08.165Z,21.90
2019-03-15T01:59:49.131Z,16.07
2019-03-15T02:02:30.704Z,17.50
2019-03-15T02:07:51.269Z,18.50
2019-03-15T02:10:32.940Z,20.93
2019-03-15T02:13:10.889Z,16.37
2019-03-15T02:15:59.518Z,17.30
2019-03-15T02:18:41.179Z,20.37
2019-03-15T02:21:22.302Z,16.60
2019-03-15T02:24:03.123Z,19.47
2019-03-15T02:26:44.576Z,17.30
2019-03-15T02:29:25.960Z,17.07
2019-03-15T02:32:07.717Z,21.93
2019-03-15T02:34:48.966Z,28.70
2019-03-15T02:40:13.499Z,19.27
2019-03-15T02:45:38.946Z,16.70
2019-03-15T02:48:20.365Z,22.90
2019-03-15T02:51:01.698Z,21.43
2019-03-15T02:53:43.100Z,18.90
2019-03-15T02:59:03.876Z,17.07
2019-03-15T03:01:45.334Z,17.77
2019-03-15T03:04:26.633Z,18.50
2019-03-15T03:07:08.216Z,19.53
2019-03-15T03:09:37.401Z,17.37
2019-03-15T03:12:26.202Z,18.27
2019-03-15T03:15:07.479Z,17.47
2019-03-15T03:17:49.211Z,17.00
2019-03-15T03:20:30.502Z,18.20
2019-03-15T03:25:50.104Z,16.27
2019-03-15T03:28:31.560Z,20.93
2019-03-15T03:31:15.526Z,14.60
2019-03-15T03:36:38.799Z,20.40
2019-03-15T03:39:19.617Z,24.27
2019-03-15T03:42:00.849Z,21.53
2019-03-15T03:44:42.162Z,16.80
2019-03-15T03:47:20.573Z,19.23
2019-03-15T03:50:02.279Z,20.27
2019-03-15T03:52:43.895Z,20.57
2019-03-15T03:55:25.624Z,19.10
2019-03-15T04:00:47.086Z,18.10
2019-03-15T04:03:28.660Z,20.00
2019-03-15T04:06:10.157Z,19.13
2019-03-15T04:08:51.751Z,20.77
2019-03-15T04:11:31.202Z,17.13
2019-03-15T04:14:13.804Z,22.73
2019-03-15T04:19:32.335Z,20.13
2019-03-15T04:22:13.872Z,19.87
2019-03-15T04:24:42.946Z,17.90
2019-03-15T04:27:31.682Z,15.43
2019-03-15T04:30:20.869Z,19.20
2019-03-15T04:33:02.477Z,16.70
2019-03-15T04:35:44.060Z,17.30
2019-03-15T04:38:13.807Z,22.10
2019-03-15T04:41:02.624Z,20.47
2019-03-15T04:43:51.461Z,15.47
2019-03-15T04:46:40.253Z,18.20
2019-03-15T04:49:29.105Z,16.00
2019-03-15T04:52:17.910Z,20.10
2019-03-15T04:55:06.880Z,15.07
2019-03-15T04:57:55.681Z,17.73
2019-03-15T05:00:44.468Z,15.37
2019-03-15T05:03:33.436Z,17.33
2019-03-15T05:06:22.250Z,16.00
2019-03-15T05:09:10.979Z,13.90
2019-03-15T05:11:52.118Z,8.47
2019-03-15T05:14:33.219Z,11.63
2019-03-15T05:17:14.568Z,13.53
2019-03-15T05:19:56.204Z,11.57
2019-03-15T05:25:17.693Z,12.70
2019-03-15T05:27:59.291Z,11.83
2019-03-15T05:30:40.567Z,15.17
2019-03-15T05:36:05.267Z,11.47
2019-03-15T05:41:26.405Z,10.60
2019-03-15T05:44:07.492Z,10.40
2019-03-15T05:46:49.179Z,13.70
2019-03-15T05:49:30.073Z,11.60
2019-03-15T05:52:11.812Z,10.53
2019-03-15T05:57:33.043Z,13.47
2019-03-15T06:00:14.589Z,12.40
2019-03-15T06:02:56.243Z,11.43
2019-03-15T06:05:37.600Z,11.20
2019-03-15T06:08:16.473Z,10.67
2019-03-15T06:10:57.866Z,7.97
2019-03-15T06:13:40.731Z,9.77
2019-03-15T06:16:21.651Z,10.13
2019-03-15T06:19:03.297Z,8.77
2019-03-15T06:24:21.646Z,12.17
2019-03-15T06:27:03.007Z,8.87
2019-03-15T06:29:41.298Z,7.87
2019-03-15T06:32:22.855Z,9.77
2019-03-15T06:34:52.130Z,10.77
2019-03-15T06:37:40.944Z,12.50
2019-03-15T06:40:22.529Z,10.93
2019-03-15T06:43:04.213Z,10.53
2019-03-15T06:45:42.647Z,11.03
2019-03-15T06:48:24.152Z,12.77
2019-03-15T06:50:53.354Z,13.20
2019-03-15T06:53:42.173Z,11.77
2019-03-15T06:56:20.709Z,15.13
2019-03-15T06:59:02.162Z,14.33
2019-03-15T07:01:43.450Z,14.90
2019-03-15T07:04:25.190Z,14.03
2019-03-15T07:06:54.339Z,10.77
2019-03-15T07:09:43.137Z,17.83
2019-03-15T07:12:24.664Z,13.37
2019-03-15T07:15:05.804Z,13.17
2019-03-15T07:17:47.021Z,12.53
2019-03-15T07:20:28.649Z,9.53
2019-03-15T07:23:10.018Z,11.30
2019-03-15T07:25:53.896Z,11.90
2019-03-15T07:28:35.078Z,15.07
2019-03-15T07:31:16.543Z,12.23
2019-03-15T07:36:41.041Z,12.80
2019-03-15T07:39:22.731Z,12.27
2019-03-15T07:42:04.640Z,15.53
2019-03-15T07:47:29.281Z,11.47
2019-03-15T07:50:13.754Z,14.03
2019-03-15T07:52:50.572Z,12.20
2019-03-15T07:55:32.023Z,12.83
2019-03-15T07:58:10.467Z,14.83
2019-03-15T08:00:52.986Z,13.50
2019-03-15T08:03:35.005Z,15.07
2019-03-15T08:06:16.664Z,12.23
2019-03-15T08:08:57.737Z,12.43
2019-03-15T08:11:39.104Z,13.13
2019-03-15T08:14:20.423Z,13.03
2019-03-15T08:16:59.024Z,12.50
2019-03-15T08:19:40.512Z,13.57
2019-03-15T08:22:22.306Z,11.80
2019-03-15T08:25:04.850Z,14.50
2019-03-15T08:27:46.030Z,10.60
2019-03-15T08:35:52.885Z,10.30
2019-03-15T08:38:46.865Z,8.67
2019-03-15T08:41:17.234Z,7.10
2019-03-15T08:46:38.157Z,9.00
2019-03-15T08:49:16.767Z,9.03
2019-03-15T08:52:03.767Z,6.70
2019-03-15T08:54:42.367Z,6.43
2019-03-15T08:57:23.969Z,7.30
2019-03-15T09:00:04.951Z,6.83
2019-03-15T09:02:46.559Z,8.47
2019-03-15T09:05:15.832Z,6.83
2019-03-15T09:08:06.030Z,7.53
2019-03-15T09:10:55.802Z,6.67
2019-03-15T09:13:28.501Z,8.63
2019-03-15T09:16:17.923Z,4.07
2019-03-15T09:18:59.357Z,6.30
2019-03-15T09:21:41.403Z,9.53
2019-03-15T09:24:24.014Z,4.97
2019-03-15T09:27:05.377Z,5.13
2019-03-15T09:29:35.268Z,6.63
2019-03-15T09:32:24.143Z,5.50
2019-03-15T09:35:12.229Z,3.77
2019-03-15T09:37:53.727Z,6.53
2019-03-15T09:40:39.029Z,7.00
2019-03-15T09:43:08.881Z,5.80
2019-03-15T09:45:58.159Z,7.60
2019-03-15T09:48:46.134Z,7.67
2019-03-15T09:54:06.624Z,5.57
2019-03-15T09:56:47.887Z,8.70
2019-03-15T09:59:29.162Z,5.07
2019-03-15T10:02:10.589Z,4.47
2019-03-15T10:04:51.741Z,4.57
2019-03-15T10:07:38.354Z,6.07
2019-03-15T10:10:13.484Z,8.00
2019-03-15T10:13:06.576Z,4.03
2019-03-15T10:15:47.798Z,3.67
2019-03-15T10:18:26.092Z,5.17
2019-03-15T10:21:09.294Z,8.13
2019-03-15T10:23:50.029Z,4.30
2019-03-15T10:26:31.602Z,5.07
2019-03-15T10:31:56.140Z,4.00
2019-03-15T10:34:39.175Z,6.17
2019-03-15T10:37:17.183Z,2.80
2019-03-15T10:40:09.343Z,4.63
2019-03-15T10:42:50.314Z,5.17
2019-03-15T10:45:31.894Z,4.27
2019-03-15T10:50:42.246Z,2.53
2019-03-15T10:53:30.339Z,3.67
2019-03-15T10:56:19.115Z,2.40
2019-03-15T11:01:48.087Z,3.17
2019-03-15T11:04:29.352Z,1.67
2019-03-15T11:07:11.673Z,3.00
2019-03-15T11:09:55.676Z,3.90
2019-03-15T11:12:42.027Z,2.27
2019-03-15T11:15:25.220Z,1.77
2019-03-15T11:18:06.484Z,2.70
2019-03-15T11:23:27.338Z,2.70
2019-03-15T11:25:57.175Z,2.43
2019-03-15T11:28:27.022Z,2.20
2019-03-15T11:31:15.799Z,2.40
2019-03-15T11:33:56.972Z,2.37
2019-03-15T11:36:38.338Z,2.33
2019-03-15T11:39:20.031Z,2.90
2019-03-15T11:41:59.172Z,5.17
2019-03-15T11:44:40.860Z,7.17
2019-03-15T11:50:01.702Z,3.13
2019-03-15T11:52:43.280Z,3.97
2019-03-15T11:55:22.224Z,5.43
2019-03-15T11:58:03.809Z,5.33
2019-03-15T12:00:46.200Z,2.90
2019-03-15T12:03:27.824Z,2.47
2019-03-15T12:06:05.895Z,5.50
2019-03-15T12:08:47.560Z,2.57
2019-03-15T12:14:08.730Z,3.03
2019-03-15T12:16:50.195Z,5.93
2019-03-15T12:19:31.710Z,3.90
2019-03-15T12:22:13.149Z,4.40
2019-03-15T12:24:51.381Z,5.03
2019-03-15T12:27:33.005Z,3.03
2019-03-15T12:30:11.337Z,4.40
2019-03-15T12:32:52.551Z,5.33
2019-03-15T12:35:31.378Z,1.43
2019-03-15T12:38:15.151Z,2.70
2019-03-15T12:40:56.553Z,7.43
2019-03-15T12:43:35.232Z,4.13
2019-03-15T12:46:16.811Z,5.73
2019-03-15T12:48:55.129Z,4.13
2019-03-15T12:51:37.866Z,5.80
2019-03-15T12:54:20.712Z,4.20
2019-03-15T12:57:02.437Z,5.37
2019-03-15T12:59:41.474Z,3.40
2019-03-15T13:02:25.147Z,8.50
2019-03-15T13:05:08.964Z,5.47
2019-03-15T13:10:32.490Z,4.80
2019-03-15T13:15:55.465Z,4.60
2019-03-15T13:21:15.763Z,3.93
2019-03-15T13:23:57.434Z,4.03
2019-03-15T13:26:38.802Z,4.60
2019-03-15T13:31:59.424Z,1.87
2019-03-15T13:34:40.397Z,3.07
2019-03-15T13:37:21.928Z,2.47
2019-03-15T13:40:05.055Z,3.70
2019-03-15T13:42:46.683Z,2.90
2019-03-15T13:48:11.433Z,3.43
2019-03-15T13:50:55.104Z,2.60
2019-03-15T13:53:36.386Z,3.80
2019-03-15T13:56:15.847Z,6.03
2019-03-15T13:59:02.577Z,4.33
2019-03-15T14:01:42.758Z,5.97
2019-03-15T14:04:24.119Z,3.93
2019-03-15T14:07:02.251Z,6.30
2019-03-15T14:09:51.076Z,3.50
2019-03-15T14:12:32.407Z,7.17
2019-03-15T14:17:57.629Z,6.40
2019-03-15T14:23:18.919Z,4.87
2019-03-15T14:26:00.373Z,3.40
2019-03-15T14:28:29.579Z,3.70
2019-03-15T14:31:21.341Z,8.37
2019-03-15T14:34:21.721Z,6.27
2019-03-15T14:36:52.245Z,2.30
2019-03-15T14:42:14.851Z,5.30
2019-03-15T14:44:57.369Z,5.13
2019-03-15T14:50:14.137Z,3.13
2019-03-15T14:53:03.248Z,10.40
2019-03-15T14:55:44.588Z,4.87
2019-03-15T14:58:25.929Z,5.53
2019-03-15T15:03:47.427Z,11.40
2019-03-15T15:09:08.202Z,5.33
2019-03-15T15:11:51.552Z,4.80
2019-03-15T15:14:32.998Z,3.30
2019-03-15T15:19:59.768Z,5.53
2019-03-15T15:22:42.152Z,5.27
2019-03-15T15:25:24.622Z,4.80
2019-03-15T15:30:48.588Z,4.63
2019-03-15T15:33:30.844Z,6.00
2019-03-15T15:36:12.148Z,4.80
2019-03-15T15:38:54.942Z,5.43
2019-03-15T15:41:37.346Z,4.70
2019-03-15T15:44:19.962Z,3.93
2019-03-15T15:47:01.223Z,6.57
2019-03-15T15:49:44.384Z,3.90
2019-03-15T15:52:25.537Z,6.43
2019-03-15T15:55:06.879Z,6.77
2019-03-15T15:57:48.498Z,8.37
2019-03-15T16:00:30.668Z,9.30
2019-03-15T16:06:26.601Z,8.40
2019-03-15T16:08:57.420Z,4.67
2019-03-15T16:11:35.538Z,5.20
2019-03-15T16:14:18.295Z,8.17
2019-03-15T16:16:59.440Z,10.03
2019-03-15T16:19:38.101Z,7.93
2019-03-15T16:22:21.644Z,4.97
2019-03-15T16:27:45.011Z,8.33
2019-03-15T16:33:05.957Z,7.00
2019-03-15T16:35:47.360Z,8.33
2019-03-15T16:38:26.398Z,6.60
2019-03-15T16:41:15.237Z,6.67
2019-03-15T16:43:53.743Z,10.70
2019-03-15T16:46:36.367Z,7.77
2019-03-15T16:49:18.885Z,9.83
2019-03-15T16:54:53.890Z,9.77
2019-03-15T17:03:05.306Z,9.43
2019-03-15T17:08:30.192Z,14.37
2019-03-15T17:13:54.026Z,15.17
2019-03-15T17:16:35.251Z,13.77
2019-03-15T17:19:17.047Z,8.97
2019-03-15T17:21:58.436Z,16.47
2019-03-15T17:27:19.152Z,14.67
2019-03-15T17:30:03.826Z,13.23
2019-03-15T17:35:25.112Z,14.63
2019-03-15T17:38:04.071Z,13.17
2019-03-15T17:40:54.341Z,13.17
2019-03-15T17:43:34.515Z,14.17
2019-03-15T17:48:58.275Z,14.17
2019-03-15T17:51:39.531Z,11.30
2019-03-15T17:54:20.796Z,14.23
2019-03-15T17:59:42.084Z,19.20
2019-03-15T18:05:02.988Z,17.03
2019-03-15T18:07:46.685Z,15.50
2019-03-15T18:13:22.968Z,11.47
2019-03-15T18:18:47.215Z,12.53
2019-03-15T18:21:17.080Z,15.17
2019-03-15T18:23:46.810Z,19.33
2019-03-15T18:26:35.570Z,15.00
2019-03-15T18:29:26.637Z,17.40
2019-03-15T18:32:07.625Z,13.40
2019-03-15T18:34:47.248Z,17.47
2019-03-15T18:37:29.857Z,17.07
2019-03-15T18:40:11.284Z,12.67
2019-03-15T18:42:52.547Z,14.40
2019-03-15T18:45:33.900Z,17.47
2019-03-15T18:48:15.447Z,13.93
2019-03-15T18:50:53.440Z,16.70
2019-03-15T18:53:35.238Z,20.70
2019-03-15T18:56:13.527Z,17.63
2019-03-15T18:58:54.929Z,19.93
2019-03-15T19:04:13.328Z,22.07
2019-03-15T19:06:56.961Z,18.63
2019-03-15T19:09:39.388Z,19.43
2019-03-15T19:12:20.729Z,22.47
2019-03-15T19:14:59.272Z,17.93
2019-03-15T19:17:41.182Z,18.70
2019-03-15T19:23:01.950Z,15.70
2019-03-15T19:25:44.623Z,15.63
2019-03-15T19:28:25.695Z,17.40
2019-03-15T19:31:07.025Z,16.80
2019-03-15T19:33:45.341Z,19.30
2019-03-15T19:36:27.209Z,17.03
2019-03-15T19:39:08.957Z,14.70
2019-03-15T19:41:50.358Z,14.77
2019-03-15T19:44:31.658Z,13.37
2019-03-15T19:47:13.426Z,10.43
2019-03-15T19:49:54.664Z,11.43
2019-03-15T19:52:32.807Z,11.57
2019-03-15T19:55:14.493Z,13.60
2019-03-15T19:57:53.263Z,12.97
2019-03-15T20:00:34.691Z,9.73
2019-03-15T20:06:06.777Z,8.57
2019-03-15T20:11:31.676Z,9.83
2019-03-15T20:14:14.120Z,9.47
2019-03-15T20:16:55.655Z,6.87
2019-03-15T20:19:39.478Z,6.30
2019-03-15T20:22:20.988Z,8.07
2019-03-15T20:25:03.054Z,5.70
2019-03-15T20:27:44.382Z,4.37
2019-03-15T20:33:06.028Z,3.80
2019-03-15T20:38:26.669Z,4.73
2019-03-15T20:41:07.939Z,6.17
2019-03-15T20:43:49.153Z,4.13
2019-03-15T20:46:35.576Z,2.30
2019-03-15T20:49:13.778Z,3.03
2019-03-15T20:51:55.589Z,6.03
2019-03-15T20:54:38.431Z,1.33
2019-03-15T20:57:19.438Z,5.37
2019-03-15T21:00:00.653Z,4.07
2019-03-15T21:02:48.245Z,5.60
2019-03-15T21:05:26.820Z,5.50
2019-03-15T21:08:08.402Z,5.87
2019-03-15T21:13:33.749Z,4.10
2019-03-15T21:18:53.218Z,4.83
2019-03-15T21:24:15.908Z,4.47
2019-03-15T21:26:57.112Z,3.07
2019-03-15T21:29:40.274Z,3.30
2019-03-15T21:32:22.068Z,6.60
2019-03-15T21:35:05.066Z,12.37
2019-03-15T21:40:14.587Z,6.43
2019-03-15T21:43:03.357Z,2.93
2019-03-15T21:48:16.508Z,6.83
2019-03-15T21:51:05.266Z,8.17
2019-03-15T21:53:54.128Z,7.63
2019-03-15T21:56:34.971Z,4.53
2019-03-15T21:59:16.286Z,6.90
2019-03-15T22:01:57.835Z,5.90
2019-03-15T22:04:43.840Z,5.73
2019-03-15T22:10:08.355Z,7.17
2019-03-15T22:12:46.568Z,4.97
2019-03-15T22:15:27.799Z,5.63
2019-03-15T22:18:09.512Z,9.97
2019-03-15T22:23:41.031Z,5.80
2019-03-15T22:26:22.531Z,5.07
2019-03-15T22:29:04.000Z,6.23
2019-03-15T22:31:44.166Z,7.13
2019-03-15T22:34:25.875Z,8.30
2019-03-15T22:37:06.878Z,5.17
2019-03-15T22:39:48.191Z,4.90
2019-03-15T22:42:29.756Z,5.27
2019-03-15T22:45:10.951Z,1.33
2019-03-15T22:47:52.307Z,4.67
2019-03-15T22:50:33.792Z,3.80
2019-03-15T22:53:15.368Z,5.60
2019-03-15T22:55:57.138Z,6.20
2019-03-15T22:58:38.876Z,7.67
2019-03-15T23:01:30.072Z,3.90
2019-03-15T23:04:02.828Z,8.27
2019-03-15T23:06:44.387Z,2.67
2019-03-15T23:09:22.591Z,4.93
2019-03-15T23:12:03.964Z,8.00
2019-03-15T23:14:45.600Z,3.63
2019-03-15T23:17:26.885Z,2.23
2019-03-15T23:20:08.643Z,5.23
2019-03-15T23:22:49.790Z,7.17
2019-03-15T23:25:31.458Z,9.90
2019-03-15T23:28:12.626Z,5.10
2019-03-15T23:30:53.994Z,7.03
2019-03-15T23:36:15.129Z,2.23
2019-03-15T23:38:57.541Z,5.70
2019-03-15T23:41:39.091Z,3.37
2019-03-15T23:46:59.698Z,8.70
2019-03-15T23:49:41.613Z,4.20
2019-03-15T23:52:22.614Z,5.57
2019-03-15T23:55:03.692Z,3.40
2019-03-15T23:57:45.342Z,6.63
